Terminal Aerodrome Forecast
Issued by NWS Jackson, KY

Home | Current Version | Previous Version | Text Only | Print | Product List | Glossary On
Versions: 1 2 3 4 5 6 7 8 9 10 11 12 13 14 15 16 17 18 19 20 21 22 23 24
000
FTUS43 KJKL 012100 AAC
TAFJKL
TAF AMD
KJKL 012100Z 0121/0218 VRB05KT 5SM BR VCSH BKN004 OVC015
     FM020100 VRB03KT P6SM OVC015
     FM020600 VRB03KT 3SM BR BKN008
     FM021300 VRB04KT P6SM BKN015=

USA.gov is the U.S. government's official web portal to all federal, state and local government web resources and services.